sensor_id;sensor_type;location;lat;lon;timestamp;temperature;humidity
57088;DHT22;42965;52.846;6.614;2023-06-04T00:01:28;11.60;99.90
57088;DHT22;42965;52.846;6.614;2023-06-04T00:03:54;11.60;99.90
57088;DHT22;42965;52.846;6.614;2023-06-04T00:06:21;11.60;99.90
57088;DHT22;42965;52.846;6.614;2023-06-04T00:08:47;11.50;99.90
57088;DHT22;42965;52.846;6.614;2023-06-04T00:11:13;11.50;99.90
57088;DHT22;42965;52.846;6.614;2023-06-04T00:13:39;11.40;99.90
57088;DHT22;42965;52.846;6.614;2023-06-04T00:16:05;11.50;99.90
57088;DHT22;42965;52.846;6.614;2023-06-04T00:18:32;11.40;99.90
57088;DHT22;42965;52.846;6.614;2023-06-04T00:20:58;11.40;99.90
57088;DHT22;42965;52.846;6.614;2023-06-04T00:23:24;11.30;99.90
57088;DHT22;42965;52.846;6.614;2023-06-04T00:25:50;11.30;99.90
57088;DHT22;42965;52.846;6.614;2023-06-04T00:28:17;11.30;99.90
57088;DHT22;42965;52.846;6.614;2023-06-04T00:30:43;11.30;99.90
57088;DHT22;42965;52.846;6.614;2023-06-04T00:33:10;11.20;99.90
57088;DHT22;42965;52.846;6.614;2023-06-04T00:35:36;11.30;99.90
57088;DHT22;42965;52.846;6.614;2023-06-04T00:38:02;11.20;99.90
57088;DHT22;42965;52.846;6.614;2023-06-04T00:40:28;11.20;99.90
57088;DHT22;42965;52.846;6.614;2023-06-04T00:42:55;11.20;99.90
57088;DHT22;42965;52.846;6.614;2023-06-04T00:45:21;11.20;99.90
57088;DHT22;42965;52.846;6.614;2023-06-04T00:47:52;11.10;99.90
57088;DHT22;42965;52.846;6.614;2023-06-04T00:50:19;11.10;99.90
57088;DHT22;42965;52.846;6.614;2023-06-04T00:52:48;11.10;99.90
57088;DHT22;42965;52.846;6.614;2023-06-04T00:55:16;11.00;99.90
57088;DHT22;42965;52.846;6.614;2023-06-04T00:57:44;11.10;99.90
57088;DHT22;42965;52.846;6.614;2023-06-04T01:00:11;11.00;99.90
57088;DHT22;42965;52.846;6.614;2023-06-04T01:02:39;11.00;99.90
57088;DHT22;42965;52.846;6.614;2023-06-04T01:05:33;10.90;99.90
57088;DHT22;42965;52.846;6.614;2023-06-04T01:07:57;11.00;99.90
57088;DHT22;42965;52.846;6.614;2023-06-04T01:10:23;10.90;99.90
57088;DHT22;42965;52.846;6.614;2023-06-04T01:12:52;10.90;99.90
57088;DHT22;42965;52.846;6.614;2023-06-04T01:15:19;10.90;99.90
57088;DHT22;42965;52.846;6.614;2023-06-04T01:17:53;10.80;99.90
57088;DHT22;42965;52.846;6.614;2023-06-04T01:20:37;10.80;99.90
57088;DHT22;42965;52.846;6.614;2023-06-04T01:25:40;10.80;99.90
57088;DHT22;42965;52.846;6.614;2023-06-04T01:28:11;10.70;99.90
57088;DHT22;42965;52.846;6.614;2023-06-04T01:30:40;10.80;99.90
57088;DHT22;42965;52.846;6.614;2023-06-04T01:33:14;10.70;99.90
57088;DHT22;42965;52.846;6.614;2023-06-04T01:35:41;10.70;99.90
57088;DHT22;42965;52.846;6.614;2023-06-04T01:38:08;10.70;99.90
57088;DHT22;42965;52.846;6.614;2023-06-04T01:40:34;10.70;99.90
57088;DHT22;42965;52.846;6.614;2023-06-04T01:43:01;10.60;99.90
57088;DHT22;42965;52.846;6.614;2023-06-04T01:45:28;10.60;99.90
57088;DHT22;42965;52.846;6.614;2023-06-04T01:47:55;10.60;99.90
57088;DHT22;42965;52.846;6.614;2023-06-04T01:50:24;10.60;99.90
57088;DHT22;42965;52.846;6.614;2023-06-04T01:52:50;10.50;99.90
57088;DHT22;42965;52.846;6.614;2023-06-04T01:55:17;10.50;99.90
57088;DHT22;42965;52.846;6.614;2023-06-04T01:57:45;10.50;99.90
57088;DHT22;42965;52.846;6.614;2023-06-04T02:00:12;10.50;99.90
57088;DHT22;42965;52.846;6.614;2023-06-04T02:02:45;10.40;99.90
57088;DHT22;42965;52.846;6.614;2023-06-04T02:05:15;10.40;99.90
57088;DHT22;42965;52.846;6.614;2023-06-04T02:07:44;10.40;99.90
57088;DHT22;42965;52.846;6.614;2023-06-04T02:10:15;10.40;99.90
57088;DHT22;42965;52.846;6.614;2023-06-04T02:15:19;10.30;99.90
57088;DHT22;42965;52.846;6.614;2023-06-04T02:17:46;10.20;99.90
57088;DHT22;42965;52.846;6.614;2023-06-04T02:20:13;10.20;99.90
57088;DHT22;42965;52.846;6.614;2023-06-04T02:22:39;10.20;99.90
57088;DHT22;42965;52.846;6.614;2023-06-04T02:25:06;10.10;99.90
57088;DHT22;42965;52.846;6.614;2023-06-04T02:27:35;10.10;99.90
57088;DHT22;42965;52.846;6.614;2023-06-04T02:30:02;10.10;99.90
57088;DHT22;42965;52.846;6.614;2023-06-04T02:32:28;10.10;99.90
57088;DHT22;42965;52.846;6.614;2023-06-04T02:34:55;10.00;99.90
57088;DHT22;42965;52.846;6.614;2023-06-04T02:37:22;10.00;99.90
57088;DHT22;42965;52.846;6.614;2023-06-04T02:39:48;9.90;99.90
57088;DHT22;42965;52.846;6.614;2023-06-04T02:42:15;9.90;99.90
57088;DHT22;42965;52.846;6.614;2023-06-04T02:44:41;9.90;99.90
57088;DHT22;42965;52.846;6.614;2023-06-04T02:47:07;9.80;99.90
57088;DHT22;42965;52.846;6.614;2023-06-04T02:49:34;9.80;99.90
57088;DHT22;42965;52.846;6.614;2023-06-04T02:52:00;9.80;99.90
57088;DHT22;42965;52.846;6.614;2023-06-04T02:54:26;9.80;99.90
57088;DHT22;42965;52.846;6.614;2023-06-04T02:56:52;9.70;99.90
57088;DHT22;42965;52.846;6.614;2023-06-04T02:59:19;9.70;99.90
57088;DHT22;42965;52.846;6.614;2023-06-04T03:01:45;9.70;99.90
57088;DHT22;42965;52.846;6.614;2023-06-04T03:04:11;9.70;99.90
57088;DHT22;42965;52.846;6.614;2023-06-04T03:06:41;9.70;99.90
57088;DHT22;42965;52.846;6.614;2023-06-04T03:09:11;9.60;99.90
57088;DHT22;42965;52.846;6.614;2023-06-04T03:11:38;9.70;99.90
57088;DHT22;42965;52.846;6.614;2023-06-04T03:14:04;9.60;99.90
57088;DHT22;42965;52.846;6.614;2023-06-04T03:16:31;9.60;99.90
57088;DHT22;42965;52.846;6.614;2023-06-04T03:18:58;9.60;99.90
57088;DHT22;42965;52.846;6.614;2023-06-04T03:21:24;9.60;99.90
57088;DHT22;42965;52.846;6.614;2023-06-04T03:23:52;9.60;99.90
57088;DHT22;42965;52.846;6.614;2023-06-04T03:26:18;9.60;99.90
57088;DHT22;42965;52.846;6.614;2023-06-04T03:28:44;9.60;99.90
57088;DHT22;42965;52.846;6.614;2023-06-04T03:31:14;9.60;99.90
57088;DHT22;42965;52.846;6.614;2023-06-04T03:33:40;9.60;99.90
57088;DHT22;42965;52.846;6.614;2023-06-04T03:36:08;9.60;99.90
57088;DHT22;42965;52.846;6.614;2023-06-04T03:38:35;9.60;99.90
57088;DHT22;42965;52.846;6.614;2023-06-04T03:41:01;9.60;99.90
57088;DHT22;42965;52.846;6.614;2023-06-04T03:43:28;9.70;99.90
57088;DHT22;42965;52.846;6.614;2023-06-04T03:45:59;9.60;99.90
57088;DHT22;42965;52.846;6.614;2023-06-04T03:48:26;9.60;99.90
57088;DHT22;42965;52.846;6.614;2023-06-04T03:50:52;9.60;99.90
57088;DHT22;42965;52.846;6.614;2023-06-04T03:53:20;9.70;99.90
57088;DHT22;42965;52.846;6.614;2023-06-04T03:55:47;9.70;99.90
57088;DHT22;42965;52.846;6.614;2023-06-04T03:58:13;9.70;99.90
57088;DHT22;42965;52.846;6.614;2023-06-04T04:00:47;9.70;99.90
57088;DHT22;42965;52.846;6.614;2023-06-04T04:03:14;9.70;99.90
57088;DHT22;42965;52.846;6.614;2023-06-04T04:05:40;9.80;99.90
57088;DHT22;42965;52.846;6.614;2023-06-04T04:08:07;9.80;99.90
57088;DHT22;42965;52.846;6.614;2023-06-04T04:10:35;9.80;99.90
57088;DHT22;42965;52.846;6.614;2023-06-04T04:13:03;9.80;99.90
57088;DHT22;42965;52.846;6.614;2023-06-04T04:15:32;9.80;99.90
57088;DHT22;42965;52.846;6.614;2023-06-04T04:18:00;9.90;99.90
57088;DHT22;42965;52.846;6.614;2023-06-04T04:20:28;9.90;99.90
57088;DHT22;42965;52.846;6.614;2023-06-04T04:22:59;10.00;99.90
57088;DHT22;42965;52.846;6.614;2023-06-04T04:25:26;10.00;99.90
57088;DHT22;42965;52.846;6.614;2023-06-04T04:27:53;10.10;99.90
57088;DHT22;42965;52.846;6.614;2023-06-04T04:30:23;10.10;99.90
57088;DHT22;42965;52.846;6.614;2023-06-04T04:32:51;10.10;99.90
57088;DHT22;42965;52.846;6.614;2023-06-04T04:35:24;10.20;99.90
57088;DHT22;42965;52.846;6.614;2023-06-04T04:37:55;10.30;99.90
57088;DHT22;42965;52.846;6.614;2023-06-04T04:40:24;10.30;99.90
57088;DHT22;42965;52.846;6.614;2023-06-04T04:42:53;10.40;99.90
57088;DHT22;42965;52.846;6.614;2023-06-04T04:45:20;10.50;99.90
57088;DHT22;42965;52.846;6.614;2023-06-04T04:47:48;10.50;99.90
57088;DHT22;42965;52.846;6.614;2023-06-04T04:50:17;10.60;99.90
57088;DHT22;42965;52.846;6.614;2023-06-04T04:52:43;10.70;99.90
57088;DHT22;42965;52.846;6.614;2023-06-04T04:55:10;10.80;99.90
57088;DHT22;42965;52.846;6.614;2023-06-04T04:57:38;10.90;99.90
57088;DHT22;42965;52.846;6.614;2023-06-04T05:00:05;11.00;99.90
57088;DHT22;42965;52.846;6.614;2023-06-04T05:02:36;11.10;99.90
57088;DHT22;42965;52.846;6.614;2023-06-04T05:05:03;11.30;99.90
57088;DHT22;42965;52.846;6.614;2023-06-04T05:07:29;11.50;99.90
57088;DHT22;42965;52.846;6.614;2023-06-04T05:09:56;11.80;99.90
57088;DHT22;42965;52.846;6.614;2023-06-04T05:12:25;12.20;99.90
57088;DHT22;42965;52.846;6.614;2023-06-04T05:14:53;12.40;99.90
57088;DHT22;42965;52.846;6.614;2023-06-04T05:17:19;12.80;99.90
57088;DHT22;42965;52.846;6.614;2023-06-04T05:19:58;13.00;99.90
57088;DHT22;42965;52.846;6.614;2023-06-04T05:22:39;13.20;99.90
57088;DHT22;42965;52.846;6.614;2023-06-04T05:25:07;13.30;99.90
57088;DHT22;42965;52.846;6.614;2023-06-04T05:27:35;13.50;99.90
57088;DHT22;42965;52.846;6.614;2023-06-04T05:30:05;13.70;99.90
57088;DHT22;42965;52.846;6.614;2023-06-04T05:32:32;13.90;99.90
57088;DHT22;42965;52.846;6.614;2023-06-04T05:34:59;14.10;99.90
57088;DHT22;42965;52.846;6.614;2023-06-04T05:37:30;14.00;99.90
57088;DHT22;42965;52.846;6.614;2023-06-04T05:39:58;14.30;99.90
57088;DHT22;42965;52.846;6.614;2023-06-04T05:42:24;14.60;99.90
57088;DHT22;42965;52.846;6.614;2023-06-04T05:44:51;14.60;99.90
57088;DHT22;42965;52.846;6.614;2023-06-04T05:47:19;14.70;99.90
57088;DHT22;42965;52.846;6.614;2023-06-04T05:49:46;14.60;99.90
57088;DHT22;42965;52.846;6.614;2023-06-04T05:52:13;14.90;99.90
57088;DHT22;42965;52.846;6.614;2023-06-04T05:54:41;14.80;99.90
57088;DHT22;42965;52.846;6.614;2023-06-04T05:57:08;14.90;99.90
57088;DHT22;42965;52.846;6.614;2023-06-04T05:59:39;15.00;99.90
57088;DHT22;42965;52.846;6.614;2023-06-04T06:02:09;15.20;99.90
57088;DHT22;42965;52.846;6.614;2023-06-04T06:04:37;15.20;99.90
57088;DHT22;42965;52.846;6.614;2023-06-04T06:07:04;15.50;99.90
57088;DHT22;42965;52.846;6.614;2023-06-04T06:09:31;15.50;99.90
57088;DHT22;42965;52.846;6.614;2023-06-04T06:11:57;15.80;99.90
57088;DHT22;42965;52.846;6.614;2023-06-04T06:14:24;15.90;99.90
57088;DHT22;42965;52.846;6.614;2023-06-04T06:16:51;16.00;99.90
57088;DHT22;42965;52.846;6.614;2023-06-04T06:19:18;16.20;99.90
57088;DHT22;42965;52.846;6.614;2023-06-04T06:21:45;16.00;99.90
57088;DHT22;42965;52.846;6.614;2023-06-04T06:24:13;16.40;99.90
57088;DHT22;42965;52.846;6.614;2023-06-04T06:26:39;16.60;99.90
57088;DHT22;42965;52.846;6.614;2023-06-04T06:29:07;16.80;99.90
57088;DHT22;42965;52.846;6.614;2023-06-04T06:31:34;16.80;99.90
57088;DHT22;42965;52.846;6.614;2023-06-04T06:34:00;16.90;99.90
57088;DHT22;42965;52.846;6.614;2023-06-04T06:36:26;17.10;99.90
57088;DHT22;42965;52.846;6.614;2023-06-04T06:38:54;17.30;99.90
57088;DHT22;42965;52.846;6.614;2023-06-04T06:41:21;17.40;99.90
57088;DHT22;42965;52.846;6.614;2023-06-04T06:43:48;17.20;99.90
57088;DHT22;42965;52.846;6.614;2023-06-04T06:46:14;17.60;99.90
57088;DHT22;42965;52.846;6.614;2023-06-04T06:48:40;17.40;99.90
57088;DHT22;42965;52.846;6.614;2023-06-04T06:51:11;17.30;99.90
57088;DHT22;42965;52.846;6.614;2023-06-04T06:53:38;17.80;99.90
57088;DHT22;42965;52.846;6.614;2023-06-04T06:56:06;17.70;99.90
57088;DHT22;42965;52.846;6.614;2023-06-04T06:58:33;18.10;99.90
57088;DHT22;42965;52.846;6.614;2023-06-04T07:00:59;18.20;99.90
57088;DHT22;42965;52.846;6.614;2023-06-04T07:03:25;18.40;99.90
57088;DHT22;42965;52.846;6.614;2023-06-04T07:05:53;18.60;99.90
57088;DHT22;42965;52.846;6.614;2023-06-04T07:08:19;18.60;99.90
57088;DHT22;42965;52.846;6.614;2023-06-04T07:10:47;18.60;99.90
57088;DHT22;42965;52.846;6.614;2023-06-04T07:13:13;18.80;99.90
57088;DHT22;42965;52.846;6.614;2023-06-04T07:15:39;19.10;99.90
57088;DHT22;42965;52.846;6.614;2023-06-04T07:18:05;19.10;99.90
57088;DHT22;42965;52.846;6.614;2023-06-04T07:20:32;19.30;99.90
57088;DHT22;42965;52.846;6.614;2023-06-04T07:22:58;19.50;99.90
57088;DHT22;42965;52.846;6.614;2023-06-04T07:25:27;19.70;99.90
57088;DHT22;42965;52.846;6.614;2023-06-04T07:27:57;19.80;99.90
57088;DHT22;42965;52.846;6.614;2023-06-04T07:30:30;20.00;99.90
57088;DHT22;42965;52.846;6.614;2023-06-04T07:32:58;20.00;99.90
57088;DHT22;42965;52.846;6.614;2023-06-04T07:35:24;20.20;99.90
57088;DHT22;42965;52.846;6.614;2023-06-04T07:37:51;20.30;99.90
57088;DHT22;42965;52.846;6.614;2023-06-04T07:40:17;20.20;99.90
57088;DHT22;42965;52.846;6.614;2023-06-04T07:42:45;20.40;99.90
57088;DHT22;42965;52.846;6.614;2023-06-04T07:45:12;20.30;99.90
57088;DHT22;42965;52.846;6.614;2023-06-04T07:47:39;20.50;99.30
57088;DHT22;42965;52.846;6.614;2023-06-04T07:50:06;20.70;96.30
57088;DHT22;42965;52.846;6.614;2023-06-04T07:52:32;20.80;94.10
57088;DHT22;42965;52.846;6.614;2023-06-04T07:54:59;20.90;92.40
57088;DHT22;42965;52.846;6.614;2023-06-04T07:57:26;21.10;93.30
57088;DHT22;42965;52.846;6.614;2023-06-04T07:59:53;21.10;91.40
57088;DHT22;42965;52.846;6.614;2023-06-04T08:02:19;21.10;91.60
57088;DHT22;42965;52.846;6.614;2023-06-04T08:04:48;21.40;91.10
57088;DHT22;42965;52.846;6.614;2023-06-04T08:07:15;21.50;90.10
57088;DHT22;42965;52.846;6.614;2023-06-04T08:09:41;21.70;91.00
57088;DHT22;42965;52.846;6.614;2023-06-04T08:12:07;21.40;91.40
57088;DHT22;42965;52.846;6.614;2023-06-04T08:14:34;21.80;90.80
57088;DHT22;42965;52.846;6.614;2023-06-04T08:17:03;21.90;87.40
57088;DHT22;42965;52.846;6.614;2023-06-04T08:19:35;22.10;82.20
57088;DHT22;42965;52.846;6.614;2023-06-04T08:22:13;22.00;75.50
57088;DHT22;42965;52.846;6.614;2023-06-04T08:24:49;22.30;72.90
57088;DHT22;42965;52.846;6.614;2023-06-04T08:27:36;22.70;73.40
57088;DHT22;42965;52.846;6.614;2023-06-04T08:30:15;22.70;71.30
57088;DHT22;42965;52.846;6.614;2023-06-04T08:33:02;22.70;70.60
57088;DHT22;42965;52.846;6.614;2023-06-04T08:35:34;22.70;68.80
57088;DHT22;42965;52.846;6.614;2023-06-04T08:38:00;22.80;65.90
57088;DHT22;42965;52.846;6.614;2023-06-04T08:40:26;23.00;65.50
57088;DHT22;42965;52.846;6.614;2023-06-04T08:42:55;23.00;64.40
57088;DHT22;42965;52.846;6.614;2023-06-04T08:45:24;23.40;61.70
57088;DHT22;42965;52.846;6.614;2023-06-04T08:47:53;23.40;61.30
57088;DHT22;42965;52.846;6.614;2023-06-04T08:50:22;23.70;57.70
57088;DHT22;42965;52.846;6.614;2023-06-04T08:52:55;23.90;58.50
57088;DHT22;42965;52.846;6.614;2023-06-04T08:55:22;24.00;57.30
57088;DHT22;42965;52.846;6.614;2023-06-04T08:57:52;23.80;54.90
57088;DHT22;42965;52.846;6.614;2023-06-04T09:00:19;24.10;51.30
57088;DHT22;42965;52.846;6.614;2023-06-04T09:02:47;24.10;52.20
57088;DHT22;42965;52.846;6.614;2023-06-04T09:05:20;24.60;54.30
57088;DHT22;42965;52.846;6.614;2023-06-04T09:07:47;24.70;51.90
57088;DHT22;42965;52.846;6.614;2023-06-04T09:10:18;24.90;52.20
57088;DHT22;42965;52.846;6.614;2023-06-04T09:12:47;24.60;54.10
57088;DHT22;42965;52.846;6.614;2023-06-04T09:15:14;24.50;51.60
57088;DHT22;42965;52.846;6.614;2023-06-04T09:17:40;24.70;50.30
57088;DHT22;42965;52.846;6.614;2023-06-04T09:20:07;25.00;51.40
57088;DHT22;42965;52.846;6.614;2023-06-04T09:22:35;25.30;51.40
57088;DHT22;42965;52.846;6.614;2023-06-04T09:25:06;25.30;50.40
57088;DHT22;42965;52.846;6.614;2023-06-04T09:27:39;25.50;49.60
57088;DHT22;42965;52.846;6.614;2023-06-04T09:30:07;25.70;48.40
57088;DHT22;42965;52.846;6.614;2023-06-04T09:32:35;25.70;48.60
57088;DHT22;42965;52.846;6.614;2023-06-04T09:35:28;25.50;48.20
57088;DHT22;42965;52.846;6.614;2023-06-04T09:37:55;25.90;47.50
57088;DHT22;42965;52.846;6.614;2023-06-04T09:40:22;25.70;47.40
57088;DHT22;42965;52.846;6.614;2023-06-04T09:42:50;25.80;47.50
57088;DHT22;42965;52.846;6.614;2023-06-04T09:45:31;26.10;47.40
57088;DHT22;42965;52.846;6.614;2023-06-04T09:48:02;26.30;47.40
57088;DHT22;42965;52.846;6.614;2023-06-04T09:50:33;26.20;47.20
57088;DHT22;42965;52.846;6.614;2023-06-04T09:53:00;25.80;46.20
57088;DHT22;42965;52.846;6.614;2023-06-04T09:55:28;26.00;46.60
57088;DHT22;42965;52.846;6.614;2023-06-04T09:57:54;26.40;47.60
57088;DHT22;42965;52.846;6.614;2023-06-04T10:00:22;26.30;47.60
57088;DHT22;42965;52.846;6.614;2023-06-04T10:02:56;26.70;47.70
57088;DHT22;42965;52.846;6.614;2023-06-04T10:05:24;26.60;46.70
57088;DHT22;42965;52.846;6.614;2023-06-04T10:07:51;27.10;47.00
57088;DHT22;42965;52.846;6.614;2023-06-04T10:10:21;26.70;46.00
57088;DHT22;42965;52.846;6.614;2023-06-04T10:12:53;27.00;46.70
57088;DHT22;42965;52.846;6.614;2023-06-04T10:15:21;26.80;46.50
57088;DHT22;42965;52.846;6.614;2023-06-04T10:17:51;27.20;45.80
57088;DHT22;42965;52.846;6.614;2023-06-04T10:20:18;27.10;44.50
57088;DHT22;42965;52.846;6.614;2023-06-04T10:22:48;27.20;45.20
57088;DHT22;42965;52.846;6.614;2023-06-04T10:25:15;27.30;45.40
57088;DHT22;42965;52.846;6.614;2023-06-04T10:27:43;27.60;45.40
57088;DHT22;42965;52.846;6.614;2023-06-04T10:30:09;27.70;44.00
57088;DHT22;42965;52.846;6.614;2023-06-04T10:32:36;27.50;44.40
57088;DHT22;42965;52.846;6.614;2023-06-04T10:35:04;27.40;44.40
57088;DHT22;42965;52.846;6.614;2023-06-04T10:37:34;27.90;44.40
57088;DHT22;42965;52.846;6.614;2023-06-04T10:40:00;27.90;43.60
57088;DHT22;42965;52.846;6.614;2023-06-04T10:42:38;27.60;42.50
57088;DHT22;42965;52.846;6.614;2023-06-04T10:45:05;27.80;44.00
57088;DHT22;42965;52.846;6.614;2023-06-04T10:47:34;27.90;43.10
57088;DHT22;42965;52.846;6.614;2023-06-04T10:50:12;27.90;42.70
57088;DHT22;42965;52.846;6.614;2023-06-04T10:52:51;27.60;42.20
57088;DHT22;42965;52.846;6.614;2023-06-04T10:55:18;27.80;43.20
57088;DHT22;42965;52.846;6.614;2023-06-04T10:57:58;27.90;42.70
57088;DHT22;42965;52.846;6.614;2023-06-04T11:00:40;28.20;43.40
57088;DHT22;42965;52.846;6.614;2023-06-04T11:03:11;28.20;41.30
57088;DHT22;42965;52.846;6.614;2023-06-04T11:05:43;28.50;42.60
57088;DHT22;42965;52.846;6.614;2023-06-04T11:08:13;28.70;41.90
57088;DHT22;42965;52.846;6.614;2023-06-04T11:10:41;28.60;41.80
57088;DHT22;42965;52.846;6.614;2023-06-04T11:13:07;28.30;39.40
57088;DHT22;42965;52.846;6.614;2023-06-04T11:15:38;28.40;42.00
57088;DHT22;42965;52.846;6.614;2023-06-04T11:18:05;28.40;41.90
57088;DHT22;42965;52.846;6.614;2023-06-04T11:20:31;28.40;41.30
57088;DHT22;42965;52.846;6.614;2023-06-04T11:22:59;28.50;41.20
57088;DHT22;42965;52.846;6.614;2023-06-04T11:25:30;28.60;40.50
57088;DHT22;42965;52.846;6.614;2023-06-04T11:27:57;28.10;40.00
57088;DHT22;42965;52.846;6.614;2023-06-04T11:30:24;28.10;40.70
57088;DHT22;42965;52.846;6.614;2023-06-04T11:33:04;28.30;41.40
57088;DHT22;42965;52.846;6.614;2023-06-04T11:35:31;28.20;41.10
57088;DHT22;42965;52.846;6.614;2023-06-04T11:38:05;28.30;40.50
57088;DHT22;42965;52.846;6.614;2023-06-04T11:40:32;28.20;39.10
57088;DHT22;42965;52.846;6.614;2023-06-04T11:42:58;28.00;39.00
57088;DHT22;42965;52.846;6.614;2023-06-04T11:45:24;27.90;39.20
57088;DHT22;42965;52.846;6.614;2023-06-04T11:47:55;27.90;39.00
57088;DHT22;42965;52.846;6.614;2023-06-04T11:50:27;27.80;39.40
57088;DHT22;42965;52.846;6.614;2023-06-04T11:52:54;27.60;38.70
57088;DHT22;42965;52.846;6.614;2023-06-04T11:55:21;27.60;39.40
57088;DHT22;42965;52.846;6.614;2023-06-04T11:57:51;27.50;40.20
57088;DHT22;42965;52.846;6.614;2023-06-04T12:00:17;27.80;40.10
57088;DHT22;42965;52.846;6.614;2023-06-04T12:03:03;27.80;40.30
57088;DHT22;42965;52.846;6.614;2023-06-04T12:05:30;28.00;39.70
57088;DHT22;42965;52.846;6.614;2023-06-04T12:08:08;28.20;40.40
57088;DHT22;42965;52.846;6.614;2023-06-04T12:10:39;28.20;40.00
57088;DHT22;42965;52.846;6.614;2023-06-04T12:13:06;28.40;39.80
57088;DHT22;42965;52.846;6.614;2023-06-04T12:15:33;28.50;40.40
57088;DHT22;42965;52.846;6.614;2023-06-04T12:17:59;28.50;40.00
57088;DHT22;42965;52.846;6.614;2023-06-04T12:20:36;28.60;39.40
57088;DHT22;42965;52.846;6.614;2023-06-04T12:23:03;28.30;39.30
57088;DHT22;42965;52.846;6.614;2023-06-04T12:25:30;28.20;40.00
57088;DHT22;42965;52.846;6.614;2023-06-04T12:27:57;28.20;40.40
57088;DHT22;42965;52.846;6.614;2023-06-04T12:30:33;28.00;40.20
57088;DHT22;42965;52.846;6.614;2023-06-04T12:33:00;28.20;40.50
57088;DHT22;42965;52.846;6.614;2023-06-04T12:35:26;28.60;40.80
57088;DHT22;42965;52.846;6.614;2023-06-04T12:37:52;28.30;40.30
57088;DHT22;42965;52.846;6.614;2023-06-04T12:40:22;28.30;40.20
57088;DHT22;42965;52.846;6.614;2023-06-04T12:42:53;28.60;40.00
57088;DHT22;42965;52.846;6.614;2023-06-04T12:45:19;28.60;39.90
57088;DHT22;42965;52.846;6.614;2023-06-04T12:47:45;28.80;39.80
57088;DHT22;42965;52.846;6.614;2023-06-04T12:50:14;28.90;39.50
57088;DHT22;42965;52.846;6.614;2023-06-04T12:52:40;28.80;39.30
57088;DHT22;42965;52.846;6.614;2023-06-04T12:55:07;28.90;39.60
57088;DHT22;42965;52.846;6.614;2023-06-04T12:57:34;29.30;40.50
57088;DHT22;42965;52.846;6.614;2023-06-04T13:00:00;29.40;40.20
57088;DHT22;42965;52.846;6.614;2023-06-04T13:02:26;29.70;40.60
57088;DHT22;42965;52.846;6.614;2023-06-04T13:04:53;29.50;40.00
57088;DHT22;42965;52.846;6.614;2023-06-04T13:07:22;29.80;39.20
57088;DHT22;42965;52.846;6.614;2023-06-04T13:09:48;29.60;40.00
57088;DHT22;42965;52.846;6.614;2023-06-04T13:12:14;29.70;40.10
57088;DHT22;42965;52.846;6.614;2023-06-04T13:14:41;29.70;40.80
57088;DHT22;42965;52.846;6.614;2023-06-04T13:17:07;29.70;41.00
57088;DHT22;42965;52.846;6.614;2023-06-04T13:19:35;29.80;41.00
57088;DHT22;42965;52.846;6.614;2023-06-04T13:22:01;30.10;41.30
57088;DHT22;42965;52.846;6.614;2023-06-04T13:24:27;29.70;41.10
57088;DHT22;42965;52.846;6.614;2023-06-04T13:26:54;29.60;41.00
57088;DHT22;42965;52.846;6.614;2023-06-04T13:29:21;29.80;41.60
57088;DHT22;42965;52.846;6.614;2023-06-04T13:31:49;30.00;40.40
57088;DHT22;42965;52.846;6.614;2023-06-04T13:34:19;29.90;39.40
57088;DHT22;42965;52.846;6.614;2023-06-04T13:36:45;29.90;40.00
57088;DHT22;42965;52.846;6.614;2023-06-04T13:39:12;29.80;40.70
57088;DHT22;42965;52.846;6.614;2023-06-04T13:41:38;29.30;41.70
57088;DHT22;42965;52.846;6.614;2023-06-04T13:44:07;29.70;41.80
57088;DHT22;42965;52.846;6.614;2023-06-04T13:46:34;29.60;40.50
57088;DHT22;42965;52.846;6.614;2023-06-04T13:49:00;29.60;40.60
57088;DHT22;42965;52.846;6.614;2023-06-04T13:51:29;29.70;41.30
57088;DHT22;42965;52.846;6.614;2023-06-04T13:53:56;29.90;40.90
57088;DHT22;42965;52.846;6.614;2023-06-04T13:56:22;29.80;41.40
57088;DHT22;42965;52.846;6.614;2023-06-04T13:58:48;29.60;41.30
57088;DHT22;42965;52.846;6.614;2023-06-04T14:01:14;29.20;41.50
57088;DHT22;42965;52.846;6.614;2023-06-04T14:03:43;29.80;41.10
57088;DHT22;42965;52.846;6.614;2023-06-04T14:06:10;29.80;41.00
57088;DHT22;42965;52.846;6.614;2023-06-04T14:08:36;29.50;41.80
57088;DHT22;42965;52.846;6.614;2023-06-04T14:11:03;29.70;41.70
57088;DHT22;42965;52.846;6.614;2023-06-04T14:13:30;28.80;42.10
57088;DHT22;42965;52.846;6.614;2023-06-04T14:15:56;29.20;42.30
57088;DHT22;42965;52.846;6.614;2023-06-04T14:18:22;29.40;42.30
57088;DHT22;42965;52.846;6.614;2023-06-04T14:20:48;29.40;42.00
57088;DHT22;42965;52.846;6.614;2023-06-04T14:23:15;29.40;41.90
57088;DHT22;42965;52.846;6.614;2023-06-04T14:25:42;29.70;42.10
57088;DHT22;42965;52.846;6.614;2023-06-04T14:28:08;29.30;41.90
57088;DHT22;42965;52.846;6.614;2023-06-04T14:30:34;29.00;42.20
57088;DHT22;42965;52.846;6.614;2023-06-04T14:33:01;29.00;43.50
57088;DHT22;42965;52.846;6.614;2023-06-04T14:35:27;29.30;43.20
57088;DHT22;42965;52.846;6.614;2023-06-04T14:37:53;29.20;42.90
57088;DHT22;42965;52.846;6.614;2023-06-04T14:40:19;29.00;42.90
57088;DHT22;42965;52.846;6.614;2023-06-04T14:42:48;29.30;43.20
57088;DHT22;42965;52.846;6.614;2023-06-04T14:45:15;29.00;42.30
57088;DHT22;42965;52.846;6.614;2023-06-04T14:47:41;28.80;43.60
57088;DHT22;42965;52.846;6.614;2023-06-04T14:50:07;28.40;43.90
57088;DHT22;42965;52.846;6.614;2023-06-04T14:52:34;27.90;43.80
57088;DHT22;42965;52.846;6.614;2023-06-04T14:55:01;27.50;45.00
57088;DHT22;42965;52.846;6.614;2023-06-04T14:57:27;26.90;45.90
57088;DHT22;42965;52.846;6.614;2023-06-04T14:59:53;26.50;46.50
57088;DHT22;42965;52.846;6.614;2023-06-04T15:02:19;26.40;47.30
57088;DHT22;42965;52.846;6.614;2023-06-04T15:04:47;26.10;47.70
57088;DHT22;42965;52.846;6.614;2023-06-04T15:07:13;26.10;47.60
57088;DHT22;42965;52.846;6.614;2023-06-04T15:09:39;25.90;47.50
57088;DHT22;42965;52.846;6.614;2023-06-04T15:12:06;25.80;47.80
57088;DHT22;42965;52.846;6.614;2023-06-04T15:14:32;25.80;47.80
57088;DHT22;42965;52.846;6.614;2023-06-04T15:16:58;25.70;48.10
57088;DHT22;42965;52.846;6.614;2023-06-04T15:19:24;25.60;48.40
57088;DHT22;42965;52.846;6.614;2023-06-04T15:21:51;25.80;49.20
57088;DHT22;42965;52.846;6.614;2023-06-04T15:24:17;25.60;48.50
57088;DHT22;42965;52.846;6.614;2023-06-04T15:26:45;25.60;49.00
57088;DHT22;42965;52.846;6.614;2023-06-04T15:29:11;25.50;48.60
57088;DHT22;42965;52.846;6.614;2023-06-04T15:31:37;25.30;49.10
57088;DHT22;42965;52.846;6.614;2023-06-04T15:34:04;25.20;49.80
57088;DHT22;42965;52.846;6.614;2023-06-04T15:36:30;25.10;49.70
57088;DHT22;42965;52.846;6.614;2023-06-04T15:38:57;25.00;49.80
57088;DHT22;42965;52.846;6.614;2023-06-04T15:41:23;24.80;49.90
57088;DHT22;42965;52.846;6.614;2023-06-04T15:43:51;24.80;50.10